Warning: Attempt to read property "ID" on null in /home/clients/389d046660254b1a70042676601e7fb4/sites/bgs.bac-a-sable.org/wp-includes/post-template.php on line 679

Warning: Attempt to read property "post_type" on null in /home/clients/389d046660254b1a70042676601e7fb4/sites/bgs.bac-a-sable.org/wp-includes/post-template.php on line 680
class="wp-singular -template-default wp-embed-responsive paged-171 wp-theme-bgs">

Index génisses

6 658 animaux

Nom DN Père Mère GPM P/G CD ISU INEL TP TB Lait CEL i_MA IMS Éleveur ▼ CP Ville
BARBIE 03-04-2026 NASHVILLE URIANE RASTAROKET AS 134 23 1.10 0.50 313 0.10 1.2 1.1 GAEC CHANGARNIER 21290 MONTMOYEN
BIANCA 03-04-2026 CHAMPAGNE VAIMALAMA SATURNE AS 168 35 -0.30 0.70 876 1.70 0.7 0.7 GAEC CHANGARNIER 21290 MONTMOYEN
BERTHA 10-04-2026 BAROLO STELLA PARMESAN AS 141 26 1.90 2.70 160 0.30 0.6 0.9 GAEC CHANGARNIER 21290 MONTMOYEN
BARBOTTE 10-04-2026 CHAMPAGNE URZY RAMSES AS 163 38 1.00 1.70 646 0.80 0.8 1.2 GAEC CHANGARNIER 21290 MONTMOYEN
BALLERINE 13-04-2026 PALMER BS ULIVANA LEON PP AS 130 2 -1.60 -2.30 416 1.10 1.0 1.2 GAEC CHANGARNIER 21290 MONTMOYEN
BLETTE 15-04-2026 VAILLANT VINAIGRETE DESIGN AS 137 30 0.60 -1.10 656 0.40 1.3 1.1 GAEC CHANGARNIER 21290 MONTMOYEN
BACCARA 19-04-2026 CHAMPAGNE UZANCE AS 156 43 2.20 3.10 524 1.00 1.1 1.1 GAEC CHANGARNIER 21290 MONTMOYEN
BARATINE 20-04-2026 USAINBOLT UBOLINE BENDER AS 142 29 0.40 1.80 523 0.40 0.4 0.9 GAEC CHANGARNIER 21290 MONTMOYEN
BAGUETTE 28-04-2026 URBEX UGUETTE BENDER AS 149 31 0.90 1.10 577 0.80 1.3 1.3 GAEC CHANGARNIER 21290 MONTMOYEN
BIBLUE 29-04-2026 VAILLANT VANESS LBB RALICE AS 155 47 -0.50 -2.80 1322 0.40 1.1 1.1 GAEC CHANGARNIER 21290 MONTMOYEN
BUSSY 02-05-2026 URBEX TASSY NORO AS 149 29 1.70 4.20 217 0.80 1.3 1.6 GAEC CHANGARNIER 21290 MONTMOYEN
BETISE 13-05-2026 URION P RICKETTE O MALLEY AS 145 36 0.80 -0.10 711 -0.10 0.8 1.0 GAEC CHANGARNIER 21290 MONTMOYEN
BALAYETTE 13-05-2026 UZEL STUDIEUSE PACTOLE AS 144 40 0.40 1.00 887 0.00 0.6 1.1 GAEC CHANGARNIER 21290 MONTMOYEN
BANANIA 16-05-2026 URBEX SAMIA OSBOURNE AS 155 36 1.40 3.30 505 0.60 1.4 1.2 GAEC CHANGARNIER 21290 MONTMOYEN
BELFONTAIN 16-05-2026 URBEX VOULAINES JONIO AS 151 33 1.10 1.20 580 0.80 1.2 1.1 GAEC CHANGARNIER 21290 MONTMOYEN
BOULETTE 21-05-2026 URION P USIBOULETT RIESLING AS 144 33 1.50 0.60 502 -0.10 0.9 0.9 GAEC CHANGARNIER 21290 MONTMOYEN
BAMBINA 07-06-2026 CHILLY ROSANA HAYSSLI AS 148 23 0.40 -1.50 603 0.70 1.4 1.7 GAEC CHANGARNIER 21290 MONTMOYEN
BAMBA 13-06-2026 MAGNUM VALDA RABAT AS 140 21 -0.20 -1.50 644 1.10 0.7 1.0 GAEC CHANGARNIER 21290 MONTMOYEN
BIBINE 14-06-2026 CHILLY NANTAISE FACT AS 141 10 0.90 -1.10 199 1.10 1.4 1.6 GAEC CHANGARNIER 21290 MONTMOYEN
BANANIA 24-06-2026 CHAMPAGNE VANILLA TITANIUM AS 175 40 1.80 3.00 512 2.00 1.4 1.4 GAEC CHANGARNIER 21290 MONTMOYEN
BIZOUNE 26-06-2026 GUY VENTOUSE LBB RALICE AS 133 9 0.50 -0.50 130 0.70 1.1 1.4 GAEC CHANGARNIER 21290 MONTMOYEN
BICHETTE 27-06-2026 PALMER BS VALETTE PEPITO AS 151 23 0.50 -0.30 476 1.00 1.1 1.5 GAEC CHANGARNIER 21290 MONTMOYEN
BERTINA 29-06-2026 VEGABOY TINA PACTOLE AS 146 24 0.30 -1.00 554 1.10 1.4 1.8 GAEC CHANGARNIER 21290 MONTMOYEN
BONITA 04-07-2026 VARANE RENITA LBB ONYX AS 147 22 1.40 1.80 235 -0.10 0.9 1.5 GAEC CHANGARNIER 21290 MONTMOYEN
BARBARA 05-07-2026 VARANE OXANNA LYNTON AS 141 25 -0.20 0.60 612 0.20 0.7 0.8 GAEC CHANGARNIER 21290 MONTMOYEN
BLEDINA 08-07-2026 VARANE THALASSA ALDO AS 151 23 1.30 2.00 214 1.00 1.4 1.9 GAEC CHANGARNIER 21290 MONTMOYEN
BARBABELLE 10-07-2026 CHILLY VIBELLE LBB RALICE AS 147 26 1.80 0.40 282 0.20 1.7 2.2 GAEC CHANGARNIER 21290 MONTMOYEN
BYZANTINE 11-07-2026 VEGABOY OMBELINE PIERO AS 132 12 -1.50 -3.50 710 0.20 1.2 1.5 GAEC CHANGARNIER 21290 MONTMOYEN
VAZURE 09-05-2024 STING MAZURE PUCK G 79 177 52 -0.60 -3.70 1492 1.60 1.2 0.9 GAEC CHANAC 48230 CHANAC
VIVINE 23-10-2024 DALLAS TITINE PISTON G 80 149 24 0.90 -0.40 335 1.30 0.1 0.4 GAEC CHANAC 48230 CHANAC